Time;durP1;ratioP1;P1;durP2;ratioP2;P2;SDS_P1;SDS_P2;PMS_P1;PMS_P2;Temp;Humidity;BMP_temperature;BMP_pressure;BME280_temperature;BME280_humidity;BME280_pressure;Samples;Min_cycle;Max_cycle;Signal;HPM_P1;HPM_P2
2023/01/06 00:09:08;;;;;;;10.30;6.30;;;;;;;4.29;93.40;100609.80;661050;1304;138768;-77
2023/01/06 00:24:12;;;;;;;16.40;7.90;;;;;;;4.32;93.50;100624.85;661272;1298;139671;-77
2023/01/06 00:39:26;;;;;;;11.50;6.90;;;;;;;4.36;93.34;100646.29;661323;1295;138850;-79
2023/01/06 00:54:42;;;;;;;10.80;5.40;;;;;;;4.33;92.97;100657.19;660737;1289;139761;-78
2023/01/06 01:09:45;;;;;;;8.80;4.80;;;;;;;4.20;92.68;100680.55;661123;1288;139113;-78
2023/01/06 01:24:49;;;;;;;4.60;3.40;;;;;;;4.22;92.53;100703.66;661027;1310;139242;-79
2023/01/06 01:39:52;;;;;;;7.90;4.40;;;;;;;4.06;90.91;100745.39;660977;1290;140015;-78
2023/01/06 01:54:55;;;;;;;6.60;4.00;;;;;;;4.13;89.89;100781.20;662725;1294;139443;-79
2023/01/06 02:10:08;;;;;;;5.00;3.50;;;;;;;4.17;89.25;100795.49;662613;1303;139190;-79
2023/01/06 02:25:17;;;;;;;9.40;4.10;;;;;;;4.12;88.58;100802.67;660851;1307;138141;-78
2023/01/06 02:41:00;;;;;;;9.60;5.20;;;;;;;4.10;89.43;100809.91;660992;1311;138169;-78
2023/01/06 02:56:05;;;;;;;9.10;5.50;;;;;;;4.04;89.64;100818.19;660125;1296;140665;-78
2023/01/06 03:11:08;;;;;;;9.00;4.40;;;;;;;3.96;88.91;100834.30;661141;1310;139024;-79
2023/01/06 03:26:13;;;;;;;4.50;3.30;;;;;;;3.92;89.69;100845.48;661162;1310;139919;-78
2023/01/06 03:43:10;;;;;;;6.30;3.90;;;;;;;3.77;89.18;100842.23;660922;1295;138499;-78
2023/01/06 03:56:55;;;;;;;3.60;2.10;;;;;;;3.67;89.18;100849.11;661056;1310;138516;-79
2023/01/06 04:27:21;;;;;;;4.80;3.00;;;;;;;3.65;87.06;100858.77;661220;1303;139161;-79
2023/01/06 04:42:24;;;;;;;6.80;2.80;;;;;;;3.50;85.86;100885.27;662582;1293;138776;-78
2023/01/06 04:57:27;;;;;;;7.40;3.40;;;;;;;3.43;84.80;100888.88;662656;1303;138655;-79
2023/01/06 05:12:31;;;;;;;6.00;3.80;;;;;;;3.31;83.49;100895.34;660899;1310;139541;-79
2023/01/06 05:27:34;;;;;;;5.10;2.90;;;;;;;3.14;82.69;100910.98;662413;1297;138696;-79
2023/01/06 05:42:38;;;;;;;36.40;12.30;;;;;;;3.02;81.86;100928.86;661008;1306;139475;-78
2023/01/06 05:57:41;;;;;;;15.00;5.80;;;;;;;3.00;80.56;100946.02;660856;1300;139631;-78
2023/01/06 06:12:44;;;;;;;45.40;16.10;;;;;;;3.00;79.53;100969.02;660923;1299;139434;-79
2023/01/06 06:27:48;;;;;;;10.30;5.00;;;;;;;2.98;78.24;100977.73;661461;1304;138658;-78
2023/01/06 06:42:51;;;;;;;12.70;4.50;;;;;;;3.03;78.75;100973.21;660757;1310;138505;-77
2023/01/06 06:57:55;;;;;;;37.20;11.60;;;;;;;2.96;78.71;100978.71;661388;1302;139971;-79
2023/01/06 07:12:58;;;;;;;36.40;16.70;;;;;;;3.02;78.38;100990.67;661276;1304;139135;-79
2023/01/06 07:28:04;;;;;;;78.80;30.50;;;;;;;3.04;77.80;100979.70;661550;1309;138834;-79
2023/01/06 07:43:09;;;;;;;76.00;29.90;;;;;;;2.98;76.19;100984.66;661322;1291;140063;-79
2023/01/06 07:58:12;;;;;;;55.30;21.40;;;;;;;3.07;76.15;100982.86;663197;1303;139207;-80
2023/01/06 08:13:16;;;;;;;18.40;8.10;;;;;;;3.20;75.69;100996.13;661496;1310;139568;-79
2023/01/06 08:28:22;;;;;;;44.20;16.10;;;;;;;3.27;74.86;101004.09;661212;1305;138443;-79
2023/01/06 08:43:26;;;;;;;31.30;14.40;;;;;;;3.27;74.29;101006.52;661410;1304;139384;-80
2023/01/06 08:58:30;;;;;;;79.30;25.40;;;;;;;3.42;74.54;101017.42;661227;1310;138832;-79
2023/01/06 09:13:34;;;;;;;142.70;54.40;;;;;;;3.42;73.49;101018.27;661706;1297;139783;-79
2023/01/06 09:28:38;;;;;;;224.90;80.10;;;;;;;3.39;73.45;100995.25;661217;1310;140404;-79
2023/01/06 09:43:51;;;;;;;79.40;30.60;;;;;;;3.40;72.88;100955.40;660963;1310;139465;-79
2023/01/06 09:59:09;;;;;;;77.50;27.40;;;;;;;3.40;73.11;100946.05;661291;1299;139518;-79
2023/01/06 10:14:13;;;;;;;63.40;21.80;;;;;;;3.58;72.83;100931.23;662626;1297;139292;-78
2023/01/06 10:29:18;;;;;;;22.40;10.90;;;;;;;3.62;72.47;100924.80;661452;1296;139622;-78
2023/01/06 10:44:21;;;;;;;34.10;14.10;;;;;;;3.46;71.60;100917.95;661340;1305;139402;-78
2023/01/06 10:59:25;;;;;;;14.30;8.20;;;;;;;3.33;70.91;100904.77;662790;1300;139292;-79
2023/01/06 11:14:31;;;;;;;9.10;5.20;;;;;;;3.12;70.95;100916.42;660815;1296;140385;-79
2023/01/06 11:29:34;;;;;;;77.40;23.40;;;;;;;3.21;71.32;100888.02;661089;1304;139211;-78
2023/01/06 11:44:39;;;;;;;48.70;16.80;;;;;;;3.32;72.20;100875.38;661171;1304;139202;-79
2023/01/06 12:00:12;;;;;;;11.70;6.60;;;;;;;3.46;72.45;100862.08;661322;1306;139381;-79
2023/01/06 12:15:17;;;;;;;35.30;12.80;;;;;;;3.41;73.19;100856.61;661295;1298;139367;-79
2023/01/06 12:30:38;;;;;;;25.80;12.30;;;;;;;3.62;73.65;100818.27;661298;1311;139594;-80
2023/01/06 12:45:55;;;;;;;102.80;41.70;;;;;;;3.73;73.66;100779.48;662791;1298;139136;-79
2023/01/06 13:01:07;;;;;;;37.50;15.80;;;;;;;3.69;74.28;100756.11;661332;1305;140244;-79
2023/01/06 13:16:52;;;;;;;55.70;25.70;;;;;;;3.61;74.84;100731.63;661341;1296;139071;-79
2023/01/06 13:32:22;;;;;;;151.70;66.30;;;;;;;3.52;75.41;100709.09;662525;1295;140077;-79
2023/01/06 13:47:25;;;;;;;44.00;19.50;;;;;;;3.53;75.87;100690.73;661601;1304;139666;-80
2023/01/06 14:02:32;;;;;;;284.70;81.20;;;;;;;3.42;76.05;100692.51;661296;1310;139187;-79
2023/01/06 14:17:39;;;;;;;300.10;72.50;;;;;;;3.38;76.16;100702.54;661710;1303;139239;-79
2023/01/06 14:32:43;;;;;;;102.50;31.20;;;;;;;3.40;77.04;100677.73;661416;1312;138987;-79
2023/01/06 14:47:50;;;;;;;157.00;67.60;;;;;;;3.34;78.19;100657.96;661871;1304;138844;-79
2023/01/06 15:03:01;;;;;;;128.60;42.80;;;;;;;3.16;80.40;100651.27;663089;1303;138706;-78
2023/01/06 15:18:06;;;;;;;81.50;36.60;;;;;;;2.92;82.56;100600.95;661494;1305;138779;-79
2023/01/06 15:33:10;;;;;;;64.10;26.80;;;;;;;2.73;84.59;100598.98;661416;1305;140133;-80
2023/01/06 15:48:19;;;;;;;196.00;78.40;;;;;;;2.61;85.03;100575.95;661376;1305;139209;-79
2023/01/06 16:03:25;;;;;;;136.90;40.10;;;;;;;2.53;87.14;100558.02;661541;1299;138781;-78
2023/01/06 16:18:32;;;;;;;153.20;42.40;;;;;;;2.41;87.95;100542.73;661631;1311;140509;-79
2023/01/06 16:33:39;;;;;;;98.00;32.30;;;;;;;2.34;89.97;100525.98;661503;1304;139822;-78
2023/01/06 16:48:43;;;;;;;256.60;85.60;;;;;;;2.31;91.42;100500.61;661878;1310;139529;-79
2023/01/06 17:03:53;;;;;;;54.40;23.90;;;;;;;2.36;92.51;100485.52;661423;1305;138878;-79
2023/01/06 17:19:25;;;;;;;45.50;18.60;;;;;;;2.30;93.36;100461.48;661614;1302;140011;-79
2023/01/06 17:34:35;;;;;;;38.10;17.50;;;;;;;2.30;93.23;100436.11;661787;1307;138547;-79
2023/01/06 17:49:39;;;;;;;45.90;20.20;;;;;;;2.33;93.87;100427.29;662930;1289;138437;-79
2023/01/06 18:04:45;;;;;;;40.90;20.90;;;;;;;2.32;94.25;100409.56;661887;1305;140021;-80
2023/01/06 18:19:49;;;;;;;72.20;35.10;;;;;;;2.22;95.33;100430.30;661541;1311;139502;-79
2023/01/06 18:35:01;;;;;;;63.30;29.70;;;;;;;2.16;97.06;100433.69;661772;1312;137913;-80
2023/01/06 18:50:40;;;;;;;49.30;26.30;;;;;;;2.25;97.68;100433.41;661701;1297;138652;-82
2023/01/06 19:05:44;;;;;;;34.00;16.40;;;;;;;2.36;97.25;100428.88;662155;1305;139076;-81
2023/01/06 19:20:50;;;;;;;195.50;78.20;;;;;;;2.26;97.63;100437.52;661969;1310;138533;-79
2023/01/06 19:35:57;;;;;;;57.60;23.80;;;;;;;2.42;97.43;100441.86;663228;1292;138827;-80
2023/01/06 19:51:16;;;;;;;55.80;26.00;;;;;;;2.45;98.36;100436.52;661019;1308;140312;-79
2023/01/06 20:06:20;;;;;;;57.40;28.70;;;;;;;2.74;98.74;100449.54;662740;1305;139063;-78
2023/01/06 20:21:24;;;;;;;53.60;25.60;;;;;;;2.82;98.90;100457.39;660763;1302;138912;-80
2023/01/06 20:36:27;;;;;;;59.40;30.00;;;;;;;2.87;99.62;100456.64;660740;1309;139758;-79
2023/01/06 20:51:31;;;;;;;50.80;25.30;;;;;;;3.04;99.77;100463.04;662312;1297;138830;-80
2023/01/06 21:06:42;;;;;;;48.20;24.60;;;;;;;3.08;99.76;100469.52;661058;1313;139474;-80
2023/01/06 21:21:46;;;;;;;48.20;25.00;;;;;;;3.12;99.66;100463.58;660667;1306;138576;-79
2023/01/06 21:36:50;;;;;;;38.10;20.80;;;;;;;3.17;99.84;100467.33;661618;1311;138656;-80
2023/01/06 21:51:54;;;;;;;42.50;21.10;;;;;;;3.10;99.80;100466.31;661653;1310;139042;-79
2023/01/06 22:07:01;;;;;;;39.80;18.90;;;;;;;3.13;100.00;100475.48;661440;1307;138421;-79
2023/01/06 22:22:07;;;;;;;42.20;22.90;;;;;;;3.19;100.00;100485.00;661408;1302;139743;-79
2023/01/06 22:37:11;;;;;;;58.00;29.00;;;;;;;3.35;99.98;100494.84;661643;1296;139072;-80
2023/01/06 22:52:14;;;;;;;41.30;19.70;;;;;;;3.35;100.00;100498.83;663446;1302;140880;-81
2023/01/06 23:07:18;;;;;;;50.30;21.70;;;;;;;3.43;100.00;100509.27;661564;1294;139856;-81
2023/01/06 23:22:24;;;;;;;57.70;25.80;;;;;;;3.50;100.00;100514.48;662319;1310;139434;-81
2023/01/06 23:37:27;;;;;;;48.30;21.70;;;;;;;3.40;100.00;100527.83;662483;1302;138782;-83
2023/01/06 23:52:31;;;;;;;54.50;23.60;;;;;;;3.48;100.00;100541.02;662306;1310;137630;-82
